sensor_id;sensor_type;location;lat;lon;timestamp;noise_LAeq;noise_LA_min;noise_LA_max;noise_LA01;noise_LA95
76382;Laerm;65202;52.520;10.528;2023-02-13T00:00:46;36.85;31.24;47.18;;
76382;Laerm;65202;52.520;10.528;2023-02-13T00:03:13;36.17;31.26;46.98;;
76382;Laerm;65202;52.520;10.528;2023-02-13T00:05:40;36.00;30.94;47.42;;
76382;Laerm;65202;52.520;10.528;2023-02-13T00:08:08;36.36;31.05;47.62;;
76382;Laerm;65202;52.520;10.528;2023-02-13T00:10:36;36.61;31.46;47.58;;
76382;Laerm;65202;52.520;10.528;2023-02-13T00:13:03;35.98;31.09;46.81;;
76382;Laerm;65202;52.520;10.528;2023-02-13T00:15:30;35.91;30.82;47.87;;
76382;Laerm;65202;52.520;10.528;2023-02-13T00:17:58;36.01;30.87;47.71;;
76382;Laerm;65202;52.520;10.528;2023-02-13T00:20:26;36.19;31.26;45.96;;
76382;Laerm;65202;52.520;10.528;2023-02-13T00:22:53;35.94;31.09;47.41;;
76382;Laerm;65202;52.520;10.528;2023-02-13T00:25:20;35.89;31.06;46.46;;
76382;Laerm;65202;52.520;10.528;2023-02-13T00:27:50;36.01;31.01;47.37;;
76382;Laerm;65202;52.520;10.528;2023-02-13T00:30:17;37.01;31.58;47.99;;
76382;Laerm;65202;52.520;10.528;2023-02-13T00:32:45;37.26;31.61;46.99;;
76382;Laerm;65202;52.520;10.528;2023-02-13T00:35:12;36.86;31.26;47.79;;
76382;Laerm;65202;52.520;10.528;2023-02-13T00:37:39;36.08;31.26;46.60;;
76382;Laerm;65202;52.520;10.528;2023-02-13T00:40:07;36.61;31.33;48.05;;
76382;Laerm;65202;52.520;10.528;2023-02-13T00:42:34;36.52;31.69;47.08;;
76382;Laerm;65202;52.520;10.528;2023-02-13T00:45:01;36.48;31.40;47.70;;
76382;Laerm;65202;52.520;10.528;2023-02-13T00:47:29;36.25;30.94;47.80;;
76382;Laerm;65202;52.520;10.528;2023-02-13T00:49:56;36.67;31.77;46.92;;
76382;Laerm;65202;52.520;10.528;2023-02-13T00:52:23;37.91;32.68;47.72;;
76382;Laerm;65202;52.520;10.528;2023-02-13T00:54:50;38.81;32.38;47.79;;
76382;Laerm;65202;52.520;10.528;2023-02-13T00:57:17;38.13;31.82;46.99;;
76382;Laerm;65202;52.520;10.528;2023-02-13T00:59:45;37.35;31.79;47.28;;
76382;Laerm;65202;52.520;10.528;2023-02-13T01:02:12;37.49;32.24;47.79;;
76382;Laerm;65202;52.520;10.528;2023-02-13T01:04:39;38.39;32.69;47.56;;
76382;Laerm;65202;52.520;10.528;2023-02-13T01:07:06;36.43;30.96;47.10;;
76382;Laerm;65202;52.520;10.528;2023-02-13T01:09:33;35.86;30.93;47.42;;
76382;Laerm;65202;52.520;10.528;2023-02-13T01:12:01;35.77;30.81;51.27;;
76382;Laerm;65202;52.520;10.528;2023-02-13T01:14:28;36.54;31.44;46.99;;
76382;Laerm;65202;52.520;10.528;2023-02-13T01:16:56;37.65;32.43;47.09;;
76382;Laerm;65202;52.520;10.528;2023-02-13T01:19:23;36.54;31.71;48.21;;
76382;Laerm;65202;52.520;10.528;2023-02-13T01:21:50;36.82;31.28;47.98;;
76382;Laerm;65202;52.520;10.528;2023-02-13T01:24:17;37.18;31.83;46.58;;
76382;Laerm;65202;52.520;10.528;2023-02-13T01:26:44;36.54;31.16;46.91;;
76382;Laerm;65202;52.520;10.528;2023-02-13T01:29:12;36.42;31.03;47.31;;
76382;Laerm;65202;52.520;10.528;2023-02-13T01:31:40;36.53;31.23;47.18;;
76382;Laerm;65202;52.520;10.528;2023-02-13T01:34:07;37.35;31.43;46.77;;
76382;Laerm;65202;52.520;10.528;2023-02-13T01:36:34;36.62;31.48;47.30;;
76382;Laerm;65202;52.520;10.528;2023-02-13T01:39:01;36.36;31.38;47.62;;
76382;Laerm;65202;52.520;10.528;2023-02-13T01:41:29;36.90;31.75;47.98;;
76382;Laerm;65202;52.520;10.528;2023-02-13T01:43:59;38.07;31.80;48.48;;
76382;Laerm;65202;52.520;10.528;2023-02-13T01:46:32;38.68;31.52;47.14;;
76382;Laerm;65202;52.520;10.528;2023-02-13T01:49:14;36.42;32.07;47.03;;
76382;Laerm;65202;52.520;10.528;2023-02-13T01:51:45;34.92;31.82;42.70;;
76382;Laerm;65202;52.520;10.528;2023-02-13T01:54:18;52.89;34.08;71.68;;
76382;Laerm;65202;52.520;10.528;2023-02-13T01:56:54;36.45;31.99;46.31;;
76382;Laerm;65202;52.520;10.528;2023-02-13T01:59:32;36.19;31.89;47.04;;
76382;Laerm;65202;52.520;10.528;2023-02-13T02:02:01;36.00;31.38;47.50;;
76382;Laerm;65202;52.520;10.528;2023-02-13T02:04:34;36.24;31.26;47.55;;
76382;Laerm;65202;52.520;10.528;2023-02-13T02:07:22;36.40;31.44;46.57;;
76382;Laerm;65202;52.520;10.528;2023-02-13T02:10:00;36.15;31.58;46.12;;
76382;Laerm;65202;52.520;10.528;2023-02-13T02:12:39;35.65;31.01;47.09;;
76382;Laerm;65202;52.520;10.528;2023-02-13T02:15:08;36.77;31.77;46.62;;
76382;Laerm;65202;52.520;10.528;2023-02-13T02:17:35;36.58;31.94;46.39;;
76382;Laerm;65202;52.520;10.528;2023-02-13T02:26:49;36.89;32.13;49.01;;
76382;Laerm;65202;52.520;10.528;2023-02-13T02:32:44;37.21;32.00;46.58;;
76382;Laerm;65202;52.520;10.528;2023-02-13T02:41:53;39.10;34.51;48.22;;
76382;Laerm;65202;52.520;10.528;2023-02-13T02:44:37;39.60;32.55;47.81;;
76382;Laerm;65202;52.520;10.528;2023-02-13T02:47:17;37.50;32.89;44.44;;
76382;Laerm;65202;52.520;10.528;2023-02-13T02:50:48;39.48;33.66;46.15;;
76382;Laerm;65202;52.520;10.528;2023-02-13T02:53:39;37.25;32.53;45.41;;
76382;Laerm;65202;52.520;10.528;2023-02-13T02:56:22;38.34;32.84;46.96;;
76382;Laerm;65202;52.520;10.528;2023-02-13T02:59:06;36.52;31.90;45.95;;
76382;Laerm;65202;52.520;10.528;2023-02-13T03:01:57;35.68;31.35;48.02;;
76382;Laerm;65202;52.520;10.528;2023-02-13T03:04:50;37.79;32.90;47.42;;
76382;Laerm;65202;52.520;10.528;2023-02-13T03:07:38;37.42;31.58;46.31;;
76382;Laerm;65202;52.520;10.528;2023-02-13T03:10:30;37.34;32.23;47.34;;
76382;Laerm;65202;52.520;10.528;2023-02-13T03:13:47;36.56;31.96;47.42;;
76382;Laerm;65202;52.520;10.528;2023-02-13T03:16:19;37.44;33.11;46.28;;
76382;Laerm;65202;52.520;10.528;2023-02-13T03:26:01;38.99;33.49;47.03;;
76382;Laerm;65202;52.520;10.528;2023-02-13T03:31:37;38.36;34.31;46.72;;
76382;Laerm;65202;52.520;10.528;2023-02-13T03:34:20;40.50;34.47;49.04;;
76382;Laerm;65202;52.520;10.528;2023-02-13T03:37:00;39.57;34.70;47.86;;
76382;Laerm;65202;52.520;10.528;2023-02-13T03:39:58;38.68;32.98;46.99;;
76382;Laerm;65202;52.520;10.528;2023-02-13T03:42:52;38.74;33.14;59.15;;
76382;Laerm;65202;52.520;10.528;2023-02-13T03:45:29;45.55;34.36;62.60;;
76382;Laerm;65202;52.520;10.528;2023-02-13T03:48:23;39.94;34.87;58.40;;
76382;Laerm;65202;52.520;10.528;2023-02-13T03:51:18;46.04;32.82;64.75;;
76382;Laerm;65202;52.520;10.528;2023-02-13T03:53:52;38.02;32.50;47.37;;
76382;Laerm;65202;52.520;10.528;2023-02-13T03:56:23;38.58;33.99;46.63;;
76382;Laerm;65202;52.520;10.528;2023-02-13T03:59:21;38.57;33.05;46.98;;
76382;Laerm;65202;52.520;10.528;2023-02-13T04:02:13;38.58;34.21;46.56;;
76382;Laerm;65202;52.520;10.528;2023-02-13T04:04:53;40.99;33.12;52.14;;
76382;Laerm;65202;52.520;10.528;2023-02-13T04:07:24;47.78;33.98;63.48;;
76382;Laerm;65202;52.520;10.528;2023-02-13T04:10:05;37.82;33.65;47.16;;
76382;Laerm;65202;52.520;10.528;2023-02-13T04:15:28;42.34;33.36;64.92;;
76382;Laerm;65202;52.520;10.528;2023-02-13T04:18:15;46.05;33.97;63.68;;
76382;Laerm;65202;52.520;10.528;2023-02-13T04:20:44;38.01;33.67;46.11;;
76382;Laerm;65202;52.520;10.528;2023-02-13T04:23:11;38.76;34.66;47.91;;
76382;Laerm;65202;52.520;10.528;2023-02-13T04:25:43;38.83;34.66;47.82;;
76382;Laerm;65202;52.520;10.528;2023-02-13T04:28:12;39.44;34.66;58.24;;
76382;Laerm;65202;52.520;10.528;2023-02-13T04:30:40;38.11;33.66;46.75;;
76382;Laerm;65202;52.520;10.528;2023-02-13T04:33:08;38.48;33.96;48.10;;
76382;Laerm;65202;52.520;10.528;2023-02-13T04:35:35;38.59;33.71;46.91;;
76382;Laerm;65202;52.520;10.528;2023-02-13T04:38:03;41.79;34.65;55.16;;
76382;Laerm;65202;52.520;10.528;2023-02-13T04:40:30;40.31;34.48;51.84;;
76382;Laerm;65202;52.520;10.528;2023-02-13T04:42:58;39.38;34.17;49.46;;
76382;Laerm;65202;52.520;10.528;2023-02-13T04:45:25;40.27;34.71;53.28;;
76382;Laerm;65202;52.520;10.528;2023-02-13T04:47:54;39.43;35.45;55.49;;
76382;Laerm;65202;52.520;10.528;2023-02-13T04:50:23;40.70;35.29;53.06;;
76382;Laerm;65202;52.520;10.528;2023-02-13T04:52:56;46.96;34.31;66.85;;
76382;Laerm;65202;52.520;10.528;2023-02-13T04:55:26;46.02;33.83;60.55;;
76382;Laerm;65202;52.520;10.528;2023-02-13T04:57:54;42.98;33.43;54.98;;
76382;Laerm;65202;52.520;10.528;2023-02-13T05:00:25;40.74;34.07;52.72;;
76382;Laerm;65202;52.520;10.528;2023-02-13T05:02:53;47.88;34.77;66.15;;
76382;Laerm;65202;52.520;10.528;2023-02-13T05:05:20;40.16;34.84;58.52;;
76382;Laerm;65202;52.520;10.528;2023-02-13T05:07:47;39.47;34.85;49.48;;
76382;Laerm;65202;52.520;10.528;2023-02-13T05:10:15;40.46;34.49;50.33;;
76382;Laerm;65202;52.520;10.528;2023-02-13T05:12:42;39.81;35.77;47.89;;
76382;Laerm;65202;52.520;10.528;2023-02-13T05:15:09;39.83;35.06;47.93;;
76382;Laerm;65202;52.520;10.528;2023-02-13T05:17:36;41.63;35.18;66.68;;
76382;Laerm;65202;52.520;10.528;2023-02-13T05:20:05;47.60;35.48;65.31;;
76382;Laerm;65202;52.520;10.528;2023-02-13T05:22:32;38.81;34.61;48.95;;
76382;Laerm;65202;52.520;10.528;2023-02-13T05:25:18;39.90;35.19;51.91;;
76382;Laerm;65202;52.520;10.528;2023-02-13T05:27:45;41.12;34.53;55.41;;
76382;Laerm;65202;52.520;10.528;2023-02-13T05:30:13;47.84;34.84;64.43;;
76382;Laerm;65202;52.520;10.528;2023-02-13T05:32:40;37.89;33.46;46.69;;
76382;Laerm;65202;52.520;10.528;2023-02-13T05:35:09;48.91;34.24;65.24;;
76382;Laerm;65202;52.520;10.528;2023-02-13T05:37:36;39.49;35.15;56.30;;
76382;Laerm;65202;52.520;10.528;2023-02-13T05:40:04;39.29;35.41;47.76;;
76382;Laerm;65202;52.520;10.528;2023-02-13T05:42:31;47.64;34.90;65.15;;
76382;Laerm;65202;52.520;10.528;2023-02-13T05:44:58;50.60;35.14;70.26;;
76382;Laerm;65202;52.520;10.528;2023-02-13T05:47:25;48.46;35.66;71.69;;
76382;Laerm;65202;52.520;10.528;2023-02-13T05:49:52;41.75;36.00;55.18;;
76382;Laerm;65202;52.520;10.528;2023-02-13T05:52:20;46.68;34.99;74.62;;
76382;Laerm;65202;52.520;10.528;2023-02-13T05:54:47;47.47;36.81;72.08;;
76382;Laerm;65202;52.520;10.528;2023-02-13T05:57:14;46.40;34.60;64.39;;
76382;Laerm;65202;52.520;10.528;2023-02-13T05:59:42;44.24;35.47;70.52;;
76382;Laerm;65202;52.520;10.528;2023-02-13T06:02:09;44.44;35.33;71.14;;
76382;Laerm;65202;52.520;10.528;2023-02-13T06:04:37;40.47;37.00;54.11;;
76382;Laerm;65202;52.520;10.528;2023-02-13T06:07:04;49.47;36.31;66.97;;
76382;Laerm;65202;52.520;10.528;2023-02-13T06:09:31;45.81;37.20;59.69;;
76382;Laerm;65202;52.520;10.528;2023-02-13T06:11:58;42.21;36.91;55.26;;
76382;Laerm;65202;52.520;10.528;2023-02-13T06:14:25;47.79;37.96;61.27;;
76382;Laerm;65202;52.520;10.528;2023-02-13T06:16:53;45.77;36.73;57.75;;
76382;Laerm;65202;52.520;10.528;2023-02-13T06:19:20;43.40;37.49;55.72;;
76382;Laerm;65202;52.520;10.528;2023-02-13T06:21:47;47.49;37.78;59.54;;
76382;Laerm;65202;52.520;10.528;2023-02-13T06:24:14;47.91;38.23;59.76;;
76382;Laerm;65202;52.520;10.528;2023-02-13T06:26:42;49.51;37.52;67.12;;
76382;Laerm;65202;52.520;10.528;2023-02-13T06:29:09;44.97;37.86;57.05;;
76382;Laerm;65202;52.520;10.528;2023-02-13T06:31:37;50.00;38.79;62.44;;
76382;Laerm;65202;52.520;10.528;2023-02-13T06:34:04;44.29;37.73;55.07;;
76382;Laerm;65202;52.520;10.528;2023-02-13T06:36:32;49.37;37.28;66.33;;
76382;Laerm;65202;52.520;10.528;2023-02-13T06:38:59;48.05;38.64;62.09;;
76382;Laerm;65202;52.520;10.528;2023-02-13T06:41:26;47.91;38.61;59.56;;
76382;Laerm;65202;52.520;10.528;2023-02-13T06:43:53;49.39;38.63;65.19;;
76382;Laerm;65202;52.520;10.528;2023-02-13T06:46:21;48.65;37.36;64.49;;
76382;Laerm;65202;52.520;10.528;2023-02-13T06:48:48;50.00;40.01;64.22;;
76382;Laerm;65202;52.520;10.528;2023-02-13T06:51:15;45.83;38.68;57.44;;
76382;Laerm;65202;52.520;10.528;2023-02-13T06:53:42;46.07;38.52;57.33;;
76382;Laerm;65202;52.520;10.528;2023-02-13T06:56:10;47.25;40.00;61.65;;
76382;Laerm;65202;52.520;10.528;2023-02-13T06:58:37;49.68;39.87;65.34;;
76382;Laerm;65202;52.520;10.528;2023-02-13T07:01:06;47.44;39.39;64.33;;
76382;Laerm;65202;52.520;10.528;2023-02-13T07:03:33;50.53;38.61;66.44;;
76382;Laerm;65202;52.520;10.528;2023-02-13T07:06:00;50.23;37.04;62.96;;
76382;Laerm;65202;52.520;10.528;2023-02-13T07:08:27;43.59;35.99;57.41;;
76382;Laerm;65202;52.520;10.528;2023-02-13T07:10:55;50.58;37.67;69.08;;
76382;Laerm;65202;52.520;10.528;2023-02-13T07:13:23;48.44;38.28;62.64;;
76382;Laerm;65202;52.520;10.528;2023-02-13T07:15:50;46.34;37.90;57.83;;
76382;Laerm;65202;52.520;10.528;2023-02-13T07:18:17;46.03;38.79;57.38;;
76382;Laerm;65202;52.520;10.528;2023-02-13T07:20:44;47.15;38.49;63.00;;
76382;Laerm;65202;52.520;10.528;2023-02-13T07:23:11;47.16;38.53;73.20;;
76382;Laerm;65202;52.520;10.528;2023-02-13T07:25:39;48.92;38.46;64.55;;
76382;Laerm;65202;52.520;10.528;2023-02-13T07:28:06;50.65;41.10;63.47;;
76382;Laerm;65202;52.520;10.528;2023-02-13T07:30:33;48.74;41.20;62.95;;
76382;Laerm;65202;52.520;10.528;2023-02-13T07:33:03;47.16;39.38;65.38;;
76382;Laerm;65202;52.520;10.528;2023-02-13T07:35:31;47.82;39.33;66.42;;
76382;Laerm;65202;52.520;10.528;2023-02-13T07:37:58;47.03;39.38;61.55;;
76382;Laerm;65202;52.520;10.528;2023-02-13T07:40:27;49.38;39.40;62.63;;
76382;Laerm;65202;52.520;10.528;2023-02-13T07:42:55;48.86;39.17;65.53;;
76382;Laerm;65202;52.520;10.528;2023-02-13T07:45:25;45.31;38.33;66.32;;
76382;Laerm;65202;52.520;10.528;2023-02-13T07:47:56;45.58;39.79;58.50;;
76382;Laerm;65202;52.520;10.528;2023-02-13T07:50:23;51.12;38.63;67.65;;
76382;Laerm;65202;52.520;10.528;2023-02-13T07:52:58;48.68;39.52;63.75;;
76382;Laerm;65202;52.520;10.528;2023-02-13T07:55:29;46.49;37.89;62.37;;
76382;Laerm;65202;52.520;10.528;2023-02-13T07:57:59;43.38;37.82;55.84;;
76382;Laerm;65202;52.520;10.528;2023-02-13T08:00:26;48.90;38.80;66.17;;
76382;Laerm;65202;52.520;10.528;2023-02-13T08:02:54;57.86;38.84;75.36;;
76382;Laerm;65202;52.520;10.528;2023-02-13T08:05:21;53.53;41.42;68.85;;
76382;Laerm;65202;52.520;10.528;2023-02-13T08:07:48;69.09;41.75;85.02;;
76382;Laerm;65202;52.520;10.528;2023-02-13T08:10:15;44.25;38.05;56.50;;
76382;Laerm;65202;52.520;10.528;2023-02-13T08:13:01;48.61;37.82;67.08;;
76382;Laerm;65202;52.520;10.528;2023-02-13T08:15:28;47.02;39.07;60.41;;
76382;Laerm;65202;52.520;10.528;2023-02-13T08:17:55;43.33;38.00;55.46;;
76382;Laerm;65202;52.520;10.528;2023-02-13T08:20:23;45.71;37.45;60.01;;
76382;Laerm;65202;52.520;10.528;2023-02-13T08:22:50;43.10;36.96;55.01;;
76382;Laerm;65202;52.520;10.528;2023-02-13T08:25:17;43.80;37.82;56.98;;
76382;Laerm;65202;52.520;10.528;2023-02-13T08:27:46;44.43;38.19;61.34;;
76382;Laerm;65202;52.520;10.528;2023-02-13T08:30:13;45.03;39.30;61.72;;
76382;Laerm;65202;52.520;10.528;2023-02-13T08:32:41;49.63;37.68;65.33;;
76382;Laerm;65202;52.520;10.528;2023-02-13T08:35:21;53.88;37.50;68.81;;
76382;Laerm;65202;52.520;10.528;2023-02-13T08:37:49;48.58;37.63;61.46;;
76382;Laerm;65202;52.520;10.528;2023-02-13T08:40:17;42.32;36.71;56.85;;
76382;Laerm;65202;52.520;10.528;2023-02-13T08:42:44;46.29;37.13;58.71;;
76382;Laerm;65202;52.520;10.528;2023-02-13T08:45:11;55.26;39.44;66.97;;
76382;Laerm;65202;52.520;10.528;2023-02-13T08:47:39;54.04;39.53;64.45;;
76382;Laerm;65202;52.520;10.528;2023-02-13T08:50:06;51.88;39.41;61.33;;
76382;Laerm;65202;52.520;10.528;2023-02-13T08:52:34;47.24;37.06;60.64;;
76382;Laerm;65202;52.520;10.528;2023-02-13T08:55:02;44.22;35.96;65.46;;
76382;Laerm;65202;52.520;10.528;2023-02-13T08:57:29;46.30;36.95;64.54;;
76382;Laerm;65202;52.520;10.528;2023-02-13T08:59:57;50.66;35.25;68.63;;
76382;Laerm;65202;52.520;10.528;2023-02-13T09:02:24;41.62;35.67;55.12;;
76382;Laerm;65202;52.520;10.528;2023-02-13T09:04:52;40.84;34.83;51.35;;
76382;Laerm;65202;52.520;10.528;2023-02-13T09:07:19;48.59;34.79;64.04;;
76382;Laerm;65202;52.520;10.528;2023-02-13T09:09:46;42.26;34.15;60.33;;
76382;Laerm;65202;52.520;10.528;2023-02-13T09:12:13;54.22;35.21;77.39;;
76382;Laerm;65202;52.520;10.528;2023-02-13T09:14:40;48.29;34.82;67.61;;
76382;Laerm;65202;52.520;10.528;2023-02-13T09:17:08;41.01;35.22;55.18;;
76382;Laerm;65202;52.520;10.528;2023-02-13T09:19:35;40.71;35.34;50.37;;
76382;Laerm;65202;52.520;10.528;2023-02-13T09:22:02;42.28;36.25;54.26;;
76382;Laerm;65202;52.520;10.528;2023-02-13T09:24:29;53.23;36.96;66.68;;
76382;Laerm;65202;52.520;10.528;2023-02-13T09:26:56;47.60;37.42;59.78;;
76382;Laerm;65202;52.520;10.528;2023-02-13T09:29:23;47.55;36.38;60.35;;
76382;Laerm;65202;52.520;10.528;2023-02-13T09:31:50;52.11;37.37;62.13;;
76382;Laerm;65202;52.520;10.528;2023-02-13T09:34:18;51.98;38.34;63.43;;
76382;Laerm;65202;52.520;10.528;2023-02-13T09:36:51;43.97;35.64;58.39;;
76382;Laerm;65202;52.520;10.528;2023-02-13T09:39:19;44.05;35.64;61.08;;
76382;Laerm;65202;52.520;10.528;2023-02-13T09:41:49;43.26;36.38;56.84;;
76382;Laerm;65202;52.520;10.528;2023-02-13T09:44:36;42.09;35.95;55.81;;
76382;Laerm;65202;52.520;10.528;2023-02-13T09:50:11;48.09;36.22;69.74;;
76382;Laerm;65202;52.520;10.528;2023-02-13T09:52:43;42.75;37.06;53.84;;
76382;Laerm;65202;52.520;10.528;2023-02-13T09:55:18;40.97;35.66;49.99;;
76382;Laerm;65202;52.520;10.528;2023-02-13T09:57:57;48.36;34.96;61.00;;
76382;Laerm;65202;52.520;10.528;2023-02-13T10:00:43;48.70;38.15;65.94;;
76382;Laerm;65202;52.520;10.528;2023-02-13T10:03:28;49.91;42.35;58.91;;
76382;Laerm;65202;52.520;10.528;2023-02-13T10:08:54;49.18;43.24;56.89;;
76382;Laerm;65202;52.520;10.528;2023-02-13T10:12:29;46.13;38.93;57.25;;
76382;Laerm;65202;52.520;10.528;2023-02-13T10:17:55;43.11;37.57;53.34;;
76382;Laerm;65202;52.520;10.528;2023-02-13T10:23:43;58.06;45.91;68.09;;
76382;Laerm;65202;52.520;10.528;2023-02-13T10:26:21;49.49;42.70;62.70;;
76382;Laerm;65202;52.520;10.528;2023-02-13T10:29:13;53.40;41.05;64.36;;
76382;Laerm;65202;52.520;10.528;2023-02-13T10:32:06;51.71;41.85;66.47;;
76382;Laerm;65202;52.520;10.528;2023-02-13T10:34:41;45.93;39.69;57.95;;
76382;Laerm;65202;52.520;10.528;2023-02-13T10:37:17;52.48;42.87;64.98;;
76382;Laerm;65202;52.520;10.528;2023-02-13T10:39:48;61.06;48.33;71.69;;
76382;Laerm;65202;52.520;10.528;2023-02-13T10:45:19;59.93;48.69;70.07;;
76382;Laerm;65202;52.520;10.528;2023-02-13T10:48:05;48.44;35.33;60.69;;
76382;Laerm;65202;52.520;10.528;2023-02-13T10:50:47;40.38;35.34;53.04;;
76382;Laerm;65202;52.520;10.528;2023-02-13T10:53:43;47.34;36.00;61.91;;
76382;Laerm;65202;52.520;10.528;2023-02-13T10:56:32;45.65;35.73;62.16;;
76382;Laerm;65202;52.520;10.528;2023-02-13T10:59:29;44.76;36.62;61.55;;
76382;Laerm;65202;52.520;10.528;2023-02-13T11:02:19;47.34;35.61;64.77;;
76382;Laerm;65202;52.520;10.528;2023-02-13T11:04:51;47.49;35.65;65.09;;
76382;Laerm;65202;52.520;10.528;2023-02-13T11:07:24;48.60;36.74;67.32;;
76382;Laerm;65202;52.520;10.528;2023-02-13T11:09:58;44.08;36.11;58.46;;
76382;Laerm;65202;52.520;10.528;2023-02-13T11:12:33;53.64;36.18;69.70;;
76382;Laerm;65202;52.520;10.528;2023-02-13T11:15:03;47.99;36.61;66.13;;
76382;Laerm;65202;52.520;10.528;2023-02-13T11:17:35;41.75;35.57;48.71;;
76382;Laerm;65202;52.520;10.528;2023-02-13T11:20:24;41.46;35.45;51.18;;
76382;Laerm;65202;52.520;10.528;2023-02-13T11:22:52;47.76;35.73;63.77;;
76382;Laerm;65202;52.520;10.528;2023-02-13T11:25:24;49.83;35.44;63.16;;
76382;Laerm;65202;52.520;10.528;2023-02-13T11:28:09;49.79;38.37;64.59;;
76382;Laerm;65202;52.520;10.528;2023-02-13T11:30:37;43.31;35.79;59.71;;
76382;Laerm;65202;52.520;10.528;2023-02-13T11:33:27;43.33;35.45;55.44;;
76382;Laerm;65202;52.520;10.528;2023-02-13T11:36:08;46.66;35.31;64.49;;
76382;Laerm;65202;52.520;10.528;2023-02-13T11:38:36;52.35;36.12;70.55;;
76382;Laerm;65202;52.520;10.528;2023-02-13T11:41:09;50.72;35.66;68.45;;
76382;Laerm;65202;52.520;10.528;2023-02-13T11:44:01;40.81;35.70;57.43;;
76382;Laerm;65202;52.520;10.528;2023-02-13T11:46:47;50.98;36.80;65.49;;
76382;Laerm;65202;52.520;10.528;2023-02-13T11:49:23;47.35;36.51;64.82;;
76382;Laerm;65202;52.520;10.528;2023-02-13T11:51:56;42.84;36.57;54.18;;
76382;Laerm;65202;52.520;10.528;2023-02-13T11:54:31;40.99;35.27;53.68;;
76382;Laerm;65202;52.520;10.528;2023-02-13T11:57:31;41.86;35.76;56.02;;
76382;Laerm;65202;52.520;10.528;2023-02-13T12:00:08;44.81;35.16;58.05;;
76382;Laerm;65202;52.520;10.528;2023-02-13T12:02:48;45.27;35.17;61.49;;
76382;Laerm;65202;52.520;10.528;2023-02-13T12:05:24;46.98;35.03;63.70;;
76382;Laerm;65202;52.520;10.528;2023-02-13T12:07:59;47.99;37.49;64.67;;
76382;Laerm;65202;52.520;10.528;2023-02-13T12:10:31;43.15;36.52;61.65;;
76382;Laerm;65202;52.520;10.528;2023-02-13T12:13:27;44.33;35.07;60.62;;
76382;Laerm;65202;52.520;10.528;2023-02-13T12:16:09;40.15;34.52;51.12;;
76382;Laerm;65202;52.520;10.528;2023-02-13T12:18:45;41.12;36.06;50.68;;
76382;Laerm;65202;52.520;10.528;2023-02-13T12:21:39;43.46;36.06;60.26;;
76382;Laerm;65202;52.520;10.528;2023-02-13T12:30:41;47.35;35.50;67.38;;
76382;Laerm;65202;52.520;10.528;2023-02-13T12:33:29;42.16;34.12;59.88;;
76382;Laerm;65202;52.520;10.528;2023-02-13T12:36:23;49.68;37.21;68.46;;
76382;Laerm;65202;52.520;10.528;2023-02-13T12:45:12;46.89;36.39;72.38;;
76382;Laerm;65202;52.520;10.528;2023-02-13T12:50:56;44.26;34.53;62.48;;
76382;Laerm;65202;52.520;10.528;2023-02-13T12:56:26;44.72;35.51;58.81;;
76382;Laerm;65202;52.520;10.528;2023-02-13T12:59:08;49.38;34.95;65.53;;
76382;Laerm;65202;52.520;10.528;2023-02-13T13:04:44;45.56;35.28;61.38;;
76382;Laerm;65202;52.520;10.528;2023-02-13T13:19:44;43.20;34.12;61.27;;
76382;Laerm;65202;52.520;10.528;2023-02-13T13:22:33;46.28;35.72;62.55;;
76382;Laerm;65202;52.520;10.528;2023-02-13T13:28:30;47.48;34.60;66.88;;
76382;Laerm;65202;52.520;10.528;2023-02-13T13:31:00;41.23;35.18;51.19;;
76382;Laerm;65202;52.520;10.528;2023-02-13T13:33:28;42.64;35.09;57.69;;
76382;Laerm;65202;52.520;10.528;2023-02-13T13:36:06;43.34;36.64;60.83;;
76382;Laerm;65202;52.520;10.528;2023-02-13T13:38:45;45.35;35.26;60.91;;
76382;Laerm;65202;52.520;10.528;2023-02-13T13:41:49;41.69;34.74;56.13;;
76382;Laerm;65202;52.520;10.528;2023-02-13T13:44:48;49.43;35.34;69.40;;
76382;Laerm;65202;52.520;10.528;2023-02-13T13:50:28;45.47;34.96;61.40;;
76382;Laerm;65202;52.520;10.528;2023-02-13T13:53:25;45.18;34.97;62.13;;
76382;Laerm;65202;52.520;10.528;2023-02-13T13:58:38;49.69;34.93;67.32;;
76382;Laerm;65202;52.520;10.528;2023-02-13T14:01:29;44.91;34.96;71.06;;
76382;Laerm;65202;52.520;10.528;2023-02-13T14:04:03;49.23;35.40;65.64;;
76382;Laerm;65202;52.520;10.528;2023-02-13T14:09:43;50.01;36.07;64.75;;
76382;Laerm;65202;52.520;10.528;2023-02-13T14:14:52;45.37;35.28;58.22;;
76382;Laerm;65202;52.520;10.528;2023-02-13T14:20:29;41.02;34.33;51.06;;
76382;Laerm;65202;52.520;10.528;2023-02-13T14:23:34;39.40;33.69;50.53;;
76382;Laerm;65202;52.520;10.528;2023-02-13T14:28:57;43.65;34.46;58.02;;
76382;Laerm;65202;52.520;10.528;2023-02-13T14:31:32;41.78;35.01;60.32;;
76382;Laerm;65202;52.520;10.528;2023-02-13T14:36:42;47.92;34.90;65.88;;
76382;Laerm;65202;52.520;10.528;2023-02-13T14:39:29;49.40;35.90;63.20;;
76382;Laerm;65202;52.520;10.528;2023-02-13T14:42:00;52.35;34.37;72.93;;
76382;Laerm;65202;52.520;10.528;2023-02-13T14:44:32;42.44;34.94;57.97;;
76382;Laerm;65202;52.520;10.528;2023-02-13T14:47:23;42.59;34.91;62.51;;
76382;Laerm;65202;52.520;10.528;2023-02-13T14:49:55;46.32;36.90;62.11;;
76382;Laerm;65202;52.520;10.528;2023-02-13T14:52:44;50.73;35.99;66.37;;
76382;Laerm;65202;52.520;10.528;2023-02-13T14:55:23;47.09;35.34;65.06;;
76382;Laerm;65202;52.520;10.528;2023-02-13T14:58:06;48.00;34.94;64.04;;
76382;Laerm;65202;52.520;10.528;2023-02-13T15:00:45;49.76;34.65;75.47;;
76382;Laerm;65202;52.520;10.528;2023-02-13T15:03:40;43.75;34.52;60.68;;
76382;Laerm;65202;52.520;10.528;2023-02-13T15:06:26;46.07;34.23;65.15;;
76382;Laerm;65202;52.520;10.528;2023-02-13T15:08:55;41.62;34.41;53.15;;
76382;Laerm;65202;52.520;10.528;2023-02-13T15:11:39;44.86;35.29;62.54;;
76382;Laerm;65202;52.520;10.528;2023-02-13T15:20:22;50.31;34.41;68.92;;
76382;Laerm;65202;52.520;10.528;2023-02-13T15:22:51;46.94;34.01;63.91;;
76382;Laerm;65202;52.520;10.528;2023-02-13T15:25:36;43.54;34.31;59.17;;
76382;Laerm;65202;52.520;10.528;2023-02-13T15:28:07;38.88;33.80;50.81;;
76382;Laerm;65202;52.520;10.528;2023-02-13T15:30:40;47.81;34.88;67.11;;
76382;Laerm;65202;52.520;10.528;2023-02-13T15:33:20;40.96;33.89;54.82;;
76382;Laerm;65202;52.520;10.528;2023-02-13T15:36:01;39.71;33.11;54.07;;
76382;Laerm;65202;52.520;10.528;2023-02-13T15:38:35;48.70;35.07;66.86;;
76382;Laerm;65202;52.520;10.528;2023-02-13T15:41:27;42.39;34.29;52.71;;
76382;Laerm;65202;52.520;10.528;2023-02-13T15:43:57;51.59;33.39;77.79;;
76382;Laerm;65202;52.520;10.528;2023-02-13T15:46:34;47.41;33.58;62.80;;
76382;Laerm;65202;52.520;10.528;2023-02-13T15:49:33;43.84;35.21;62.89;;
76382;Laerm;65202;52.520;10.528;2023-02-13T15:52:20;48.10;34.75;61.59;;
76382;Laerm;65202;52.520;10.528;2023-02-13T15:54:54;45.73;35.28;60.01;;
76382;Laerm;65202;52.520;10.528;2023-02-13T15:57:23;43.60;34.74;55.85;;